Terminal Aerodrome Forecast
Issued by NWS

Home | Current Version | Previous Version | Text Only | Print | Product List | Glossary On
Versions: 1 2 3 4 5 6 7 8 9 10 11 12 13 14 15
000
FTAK31 PAJN 161936 AAA
TAFASI
TAF AMD
PASI 161936Z 1620/1718 23011KT 4SM -SHRA SCT015 BKN025 OVC035
      WS020/27025KT
      TEMPO 1620/1622 2SM -SHRA BR SCT005 OVC015
     FM170000 24012KT P6SM -SHRA BKN035 OVC050=

USA.gov is the U.S. government's official web portal to all federal, state and local government web resources and services.